Team Explorer — ZCEP8 — position and weather

sailwx.info

Track history (hours):
 
Tides and Currents Weather Stations Pressure Air Temp Water Temp Dewpoint Dewpoint Depression Visibility Wind Speed Wind Dir Waves Ship Positions

Team Explorer

Last reported at 2018-Jun-17 23:05 UTC. Time now 2018-Jun-22 23:04 UTC.
Position N 49°11' W 006°51'.

Length 183 m; draft 9.6 m.

Type: Ship (hazmat cat C). MMSI: 310708000.

Date/timePositionNaut miles runAvg speedWind from/ knotsBaromVisibWave heightAir tempDewpointWater temp
2018-Jun-17 23:05N 49°11' W 006°51'211.1
2018-Jun-17 22:55N 49°11' W 006°49'511.3
2018-Jun-17 22:28N 49°12' W 006°41'511.1
2018-Jun-17 22:00N 49°14' W 006°33'9310.8
2018-Jun-17 13:21N 49°44' W 004°18'511.7
2018-Jun-17 12:54N 49°45' W 004°10'1411.0
2018-Jun-17 11:36N 49°49' W 003°48'110.5
2018-Jun-17 11:30N 49°49' W 003°47'510.2
2018-Jun-17 10:58N 49°51' W 003°39'4 9.6
2018-Jun-17 10:30N 49°53' W 003°33'5 9.3
2018-Jun-17 10:00N 49°54' W 003°26'5 9.5
2018-Jun-17 09:30N 49°56' W 003°19'5 9.5
2018-Jun-17 09:00N 49°57' W 003°12'5 9.6
2018-Jun-17 08:30N 49°58' W 003°04'5 9.9
2018-Jun-17 08:00N 49°60' W 002°57'610.6
2018-Jun-17 07:29N 50°01' W 002°49'511.2
2018-Jun-17 07:00N 50°02' W 002°40'612.1
2018-Jun-17 06:30N 50°04' W 002°31'913.3
2018-Jun-17 05:48N 50°06' W 002°18'1414.8
2018-Jun-17 04:50N 50°10' W 001°56'515.5
2018-Jun-17 04:29N 50°12' W 001°48'4214.0
2018-Jun-17 01:31N 50°22' W 000°45'011.0
2018-Jun-17 01:30N 50°22' W 000°45'510.7
2018-Jun-17 01:00N 50°24' W 000°37'910.2
2018-Jun-17 00:09N 50°26' W 000°24'2 9.8
2018-Jun-16 23:59N 50°26' W 000°21'5 9.4
2018-Jun-16 23:26N 50°28' W 000°13'9 8.9
2018-Jun-16 22:23N 50°30' E 000°01'5 8.8
2018-Jun-16 21:51N 50°32' E 000°08'6 9.3
2018-Jun-16 21:13N 50°33' E 000°17'210.0
2018-Jun-16 21:00N 50°33' E 000°20'510.8
2018-Jun-16 20:30N 50°35' E 000°29'611.6
2018-Jun-16 20:00N 50°37' E 000°37'612.2
2018-Jun-16 19:30N 50°40' E 000°45'612.6
2018-Jun-16 19:00N 50°44' E 000°53'612.7
2018-Jun-16 18:30N 50°48' E 001°01'612.4
2018-Jun-16 18:00N 50°52' E 001°08'612.1
2018-Jun-16 17:30N 50°56' E 001°15'611.1
2018-Jun-16 17:00N 51°01' E 001°21'510.3
2018-Jun-16 16:30N 51°04' E 001°27'5 9.4
2018-Jun-16 16:00N 51°07' E 001°32'4 8.5
2018-Jun-16 15:30N 51°10' E 001°38'4 8.2
2018-Jun-16 15:00N 51°12' E 001°43'4 8.4
2018-Jun-16 14:30N 51°15' E 001°47'4 8.6
2018-Jun-16 14:00N 51°19' E 001°51'5 9.4
2018-Jun-16 13:30N 51°23' E 001°54'510.3
2018-Jun-16 13:00N 51°28' E 001°57'611.6
2018-Jun-16 12:30N 51°32' E 002°03'612.3
2018-Jun-16 12:00N 51°37' E 002°10'713.1
2018-Jun-16 11:30N 51°42' E 002°17'713.8
2018-Jun-16 10:59N 51°47' E 002°24'714.1
2018-Jun-16 10:30N 51°53' E 002°31'713.8
2018-Jun-16 10:01N 51°58' E 002°37'714.1
2018-Jun-16 09:30N 52°05' E 002°38'713.9
2018-Jun-16 09:00N 52°13' E 002°38'1013.2
2018-Jun-16 08:14N 52°21' E 002°47'513.6
2018-Jun-16 07:53N 52°25' E 002°51'713.4
2018-Jun-16 07:21N 52°32' E 002°56'513.0
2018-Jun-16 06:59N 52°36' E 002°59'612.6
2018-Jun-16 06:30N 52°41' E 003°04'812.5
2018-Jun-16 05:54N 52°48' E 003°09'511.8
2018-Jun-16 05:29N 52°52' E 003°13'711.9
2018-Jun-16 04:57N 52°59' E 003°17'611.7
2018-Jun-16 04:28N 53°04' E 003°20'611.8
2018-Jun-16 03:58N 53°09' E 003°23'612.2
2018-Jun-16 03:29N 53°15' E 003°25'119 8.3
2018-Jun-15 13:11N 53°32' E 006°43'213.6
2018-Jun-15 13:00N 53°31' E 006°47'712.7
2018-Jun-15 12:29N 53°26' E 006°54'511.1
2018-Jun-15 12:00N 53°22' E 006°59'4 7.6
2018-Jun-15 11:30N 53°20' E 007°04'4 7.5
2018-Jun-15 11:00N 53°20' E 007°10'1 1.3
2018-Jun-15 10:29N 53°20' E 007°11'0 0.6
2018-Jun-15 10:00N 53°20' E 007°12'1 1.2
2018-Jun-15 09:31N 53°21' E 007°12'0 0.0
2018-Jun-14 12:21N 53°21' E 007°12'0 0.0
2018-Jun-13 14:13N 53°21' E 007°12'0 0.1
2018-Jun-13 14:00N 53°21' E 007°12'1 1.7
2018-Jun-13 13:31N 53°20' E 007°11'0 0.3
2018-Jun-13 13:01N 53°20' E 007°11'1 1.9
2018-Jun-13 12:30N 53°20' E 007°10'2 4.7
2018-Jun-13 12:00N 53°20' E 007°06'4 7.8
2018-Jun-13 11:30N 53°21' E 006°59'612.5
2018-Jun-13 11:00N 53°26' E 006°55'612.9
2018-Jun-13 10:30N 53°31' E 006°47'45 9.5
2018-Jun-13 05:46N 53°35' E 005°31'414.3
2018-Jun-13 05:30N 53°34' E 005°25'714.2
2018-Jun-13 05:00N 53°32' E 005°14'714.1
2018-Jun-13 04:30N 53°29' E 005°03'714.2
2018-Jun-13 04:00N 53°27' E 004°52'713.5
2018-Jun-13 03:30N 53°23' E 004°42'813.9
2018-Jun-13 02:56N 53°16' E 004°35'814.0
2018-Jun-13 02:24N 53°09' E 004°30'513.9
2018-Jun-13 02:00N 53°05' E 004°25'713.5
2018-Jun-13 01:30N 52°59' E 004°19'713.4
2018-Jun-13 01:00N 52°52' E 004°16'713.6
2018-Jun-13 00:30N 52°47' E 004°09'713.6
2018-Jun-13 00:01N 52°42' E 004°02'713.0
2018-Jun-12 23:30N 52°37' E 003°55'713.1
2018-Jun-12 23:00N 52°32' E 003°47'712.8
2018-Jun-12 22:30N 52°27' E 003°40'612.2
2018-Jun-12 22:00N 52°23' E 003°33'612.4
2018-Jun-12 21:30N 52°19' E 003°25'612.0
2018-Jun-12 21:00N 52°14' E 003°20'811.4
2018-Jun-12 20:19N 52°09' E 003°10'611.5
2018-Jun-12 19:46N 52°04' E 003°03'2510.5
2018-Jun-12 17:25N 51°46' E 002°36'511.0
2018-Jun-12 16:57N 51°43' E 002°30'511.3
2018-Jun-12 16:30N 51°39' E 002°25'611.6
2018-Jun-12 16:00N 51°34' E 002°20'612.1
2018-Jun-12 15:30N 51°29' E 002°14'612.2
2018-Jun-12 15:00N 51°24' E 002°08'612.3
2018-Jun-12 14:30N 51°18' E 002°07'611.5
2018-Jun-12 14:00N 51°13' E 002°02'612.6
2018-Jun-12 13:30N 51°10' E 001°53'613.0
2018-Jun-12 13:00N 51°06' E 001°45'713.7
2018-Jun-12 12:30N 51°01' E 001°37'714.1
2018-Jun-12 12:00N 50°56' E 001°29'714.8
2018-Jun-12 11:31N 50°49' E 001°25'714.4
2018-Jun-12 11:00N 50°43' E 001°21'714.2
2018-Jun-12 10:29N 50°38' E 001°12'713.9
2018-Jun-12 10:00N 50°33' E 001°04'713.4
2018-Jun-12 09:30N 50°30' E 000°55'713.6
2018-Jun-12 09:00N 50°28' E 000°45'813.9
2018-Jun-12 08:26N 50°26' E 000°33'914.4
2018-Jun-12 07:51N 50°23' E 000°20'815.0
2018-Jun-12 07:20N 50°22' E 000°08'514.9
2018-Jun-12 06:58N 50°20' E 000°00'1015.0
2018-Jun-12 06:19N 50°18' W 000°14'515.4
2018-Jun-12 06:01N 50°16' W 000°22'815.3
2018-Jun-12 05:30N 50°14' W 000°33'715.0
2018-Jun-12 05:00N 50°12' W 000°44'714.6
2018-Jun-12 04:30N 50°10' W 000°55'714.2
2018-Jun-12 04:00N 50°08' W 001°06'713.5
2018-Jun-12 03:30N 50°06' W 001°16'612.7
2018-Jun-12 03:00N 50°05' W 001°26'612.0
2018-Jun-12 02:30N 50°03' W 001°35'611.5
2018-Jun-12 02:00N 50°02' W 001°44'510.7
2018-Jun-12 01:30N 50°00' W 001°52'510.2
2018-Jun-12 01:00N 49°59' W 001°59'5 9.9
2018-Jun-12 00:30N 49°57' W 002°06'5 9.8
2018-Jun-12 00:00N 49°56' W 002°14'610.3
2018-Jun-11 23:24N 49°54' W 002°23'510.8
2018-Jun-11 22:56N 49°53' W 002°31'511.5
2018-Jun-11 22:30N 49°52' W 002°38'612.3
2018-Jun-11 22:00N 49°50' W 002°47'712.7
2018-Jun-11 21:26N 49°48' W 002°58'512.9
2018-Jun-11 21:00N 49°46' W 003°06'713.3
2018-Jun-11 20:30N 49°42' W 003°14'713.4
2018-Jun-11 20:00N 49°39' W 003°24'713.6
2018-Jun-11 19:30N 49°36' W 003°33'1113.9
2018-Jun-11 18:42N 49°30' W 003°48'314.1
2018-Jun-11 18:30N 49°29' W 003°51'5114.5
2018-Jun-11 14:58N 49°03' W 004°59'715.0
2018-Jun-11 14:30N 48°59' W 005°08'714.8
2018-Jun-11 14:00N 48°55' W 005°18'815.2
2018-Jun-11 13:28N 48°51' W 005°28'715.1
2018-Jun-11 13:00N 48°47' W 005°37'815.0
2018-Jun-11 12:28N 48°40' W 005°44'714.5
2018-Jun-11 11:58N 48°34' W 005°49'714.4
2018-Jun-11 11:30N 48°28' W 005°54'714.6
2018-Jun-11 11:00N 48°22' W 005°59'714.0
2018-Jun-11 10:29N 48°15' W 006°04'714.0
2018-Jun-11 10:00N 48°09' W 006°08'1413.8
2018-Jun-11 08:58N 47°56' W 006°17'54012.9
2018-Jun-09 15:00N 39°19' W 009°57'612.2
2018-Jun-09 14:30N 39°13' W 009°57'612.4
2018-Jun-09 14:00N 39°07' W 009°57'612.9
2018-Jun-09 13:30N 39°01' W 009°58'612.6
2018-Jun-09 13:00N 38°54' W 009°57'612.6
2018-Jun-09 12:30N 38°48' W 009°57'612.7
2018-Jun-09 12:00N 38°42' W 009°57'612.7
2018-Jun-09 11:30N 38°35' W 009°55'612.7
2018-Jun-09 11:00N 38°29' W 009°53'612.5
2018-Jun-09 10:30N 38°23' W 009°52'712.6
2018-Jun-09 09:57N 38°17' W 009°49'612.6
2018-Jun-09 09:30N 38°11' W 009°48'612.8
2018-Jun-09 09:00N 38°05' W 009°45'613.0
2018-Jun-09 08:30N 37°59' W 009°43'812.8
2018-Jun-09 07:54N 37°51' W 009°42'513.0
2018-Jun-09 07:30N 37°46' W 009°40'712.9
2018-Jun-09 07:00N 37°40' W 009°39'8211.1
2018-Jun-08 23:36N 36°36' W 008°34'1013.0
2018-Jun-08 22:48N 36°37' W 008°21'512.6
2018-Jun-08 22:24N 36°38' W 008°15'512.8
2018-Jun-08 21:59N 36°38' W 008°09'  
Track history (hours):
 
Tides and Currents Weather Stations Pressure Air Temp Water Temp Dewpoint Dewpoint Depression Visibility Wind Speed Wind Dir Waves Ship Positions

Team Explorer

Last reported at 2018-Jun-17 23:05 UTC. Time now 2018-Jun-22 23:04 UTC.
Position N 49°11' W 006°51'.

Length 183 m; draft 9.6 m.

Type: Ship (hazmat cat C). MMSI: 310708000.

Date/timePositionNaut miles runAvg speedWind from/ knotsBaromVisibWave heightAir tempDewpointWater temp
2018-Jun-17 23:05N 49°11' W 006°51'211.1
2018-Jun-17 22:55N 49°11' W 006°49'511.3
2018-Jun-17 22:28N 49°12' W 006°41'511.1
2018-Jun-17 22:00N 49°14' W 006°33'9310.8
2018-Jun-17 13:21N 49°44' W 004°18'511.7
2018-Jun-17 12:54N 49°45' W 004°10'1411.0
2018-Jun-17 11:36N 49°49' W 003°48'110.5
2018-Jun-17 11:30N 49°49' W 003°47'510.2
2018-Jun-17 10:58N 49°51' W 003°39'4 9.6
2018-Jun-17 10:30N 49°53' W 003°33'5 9.3
2018-Jun-17 10:00N 49°54' W 003°26'5 9.5
2018-Jun-17 09:30N 49°56' W 003°19'5 9.5
2018-Jun-17 09:00N 49°57' W 003°12'5 9.6
2018-Jun-17 08:30N 49°58' W 003°04'5 9.9
2018-Jun-17 08:00N 49°60' W 002°57'610.6
2018-Jun-17 07:29N 50°01' W 002°49'511.2
2018-Jun-17 07:00N 50°02' W 002°40'612.1
2018-Jun-17 06:30N 50°04' W 002°31'913.3
2018-Jun-17 05:48N 50°06' W 002°18'1414.8
2018-Jun-17 04:50N 50°10' W 001°56'515.5
2018-Jun-17 04:29N 50°12' W 001°48'4214.0
2018-Jun-17 01:31N 50°22' W 000°45'011.0
2018-Jun-17 01:30N 50°22' W 000°45'510.7
2018-Jun-17 01:00N 50°24' W 000°37'910.2
2018-Jun-17 00:09N 50°26' W 000°24'2 9.8
2018-Jun-16 23:59N 50°26' W 000°21'5 9.4
2018-Jun-16 23:26N 50°28' W 000°13'9 8.9
2018-Jun-16 22:23N 50°30' E 000°01'5 8.8
2018-Jun-16 21:51N 50°32' E 000°08'6 9.3
2018-Jun-16 21:13N 50°33' E 000°17'210.0
2018-Jun-16 21:00N 50°33' E 000°20'510.8
2018-Jun-16 20:30N 50°35' E 000°29'611.6
2018-Jun-16 20:00N 50°37' E 000°37'612.2
2018-Jun-16 19:30N 50°40' E 000°45'612.6
2018-Jun-16 19:00N 50°44' E 000°53'612.7
2018-Jun-16 18:30N 50°48' E 001°01'612.4
2018-Jun-16 18:00N 50°52' E 001°08'612.1
2018-Jun-16 17:30N 50°56' E 001°15'611.1
2018-Jun-16 17:00N 51°01' E 001°21'510.3
2018-Jun-16 16:30N 51°04' E 001°27'5 9.4
2018-Jun-16 16:00N 51°07' E 001°32'4 8.5
2018-Jun-16 15:30N 51°10' E 001°38'4 8.2
2018-Jun-16 15:00N 51°12' E 001°43'4 8.4
2018-Jun-16 14:30N 51°15' E 001°47'4 8.6
2018-Jun-16 14:00N 51°19' E 001°51'5 9.4
2018-Jun-16 13:30N 51°23' E 001°54'510.3
2018-Jun-16 13:00N 51°28' E 001°57'611.6
2018-Jun-16 12:30N 51°32' E 002°03'612.3
2018-Jun-16 12:00N 51°37' E 002°10'713.1
2018-Jun-16 11:30N 51°42' E 002°17'713.8
2018-Jun-16 10:59N 51°47' E 002°24'714.1
2018-Jun-16 10:30N 51°53' E 002°31'713.8
2018-Jun-16 10:01N 51°58' E 002°37'714.1
2018-Jun-16 09:30N 52°05' E 002°38'713.9
2018-Jun-16 09:00N 52°13' E 002°38'1013.2
2018-Jun-16 08:14N 52°21' E 002°47'513.6
2018-Jun-16 07:53N 52°25' E 002°51'713.4
2018-Jun-16 07:21N 52°32' E 002°56'513.0
2018-Jun-16 06:59N 52°36' E 002°59'612.6
2018-Jun-16 06:30N 52°41' E 003°04'812.5
2018-Jun-16 05:54N 52°48' E 003°09'511.8
2018-Jun-16 05:29N 52°52' E 003°13'711.9
2018-Jun-16 04:57N 52°59' E 003°17'611.7
2018-Jun-16 04:28N 53°04' E 003°20'611.8
2018-Jun-16 03:58N 53°09' E 003°23'612.2
2018-Jun-16 03:29N 53°15' E 003°25'119 8.3
2018-Jun-15 13:11N 53°32' E 006°43'213.6
2018-Jun-15 13:00N 53°31' E 006°47'712.7
2018-Jun-15 12:29N 53°26' E 006°54'511.1
2018-Jun-15 12:00N 53°22' E 006°59'4 7.6
2018-Jun-15 11:30N 53°20' E 007°04'4 7.5
2018-Jun-15 11:00N 53°20' E 007°10'1 1.3
2018-Jun-15 10:29N 53°20' E 007°11'0 0.6
2018-Jun-15 10:00N 53°20' E 007°12'1 1.2
2018-Jun-15 09:31N 53°21' E 007°12'0 0.0
2018-Jun-14 12:21N 53°21' E 007°12'0 0.0
2018-Jun-13 14:13N 53°21' E 007°12'0 0.1
2018-Jun-13 14:00N 53°21' E 007°12'1 1.7
2018-Jun-13 13:31N 53°20' E 007°11'0 0.3
2018-Jun-13 13:01N 53°20' E 007°11'1 1.9
2018-Jun-13 12:30N 53°20' E 007°10'2 4.7
2018-Jun-13 12:00N 53°20' E 007°06'4 7.8
2018-Jun-13 11:30N 53°21' E 006°59'612.5
2018-Jun-13 11:00N 53°26' E 006°55'612.9
2018-Jun-13 10:30N 53°31' E 006°47'45 9.5
2018-Jun-13 05:46N 53°35' E 005°31'414.3
2018-Jun-13 05:30N 53°34' E 005°25'714.2
2018-Jun-13 05:00N 53°32' E 005°14'714.1
2018-Jun-13 04:30N 53°29' E 005°03'714.2
2018-Jun-13 04:00N 53°27' E 004°52'713.5
2018-Jun-13 03:30N 53°23' E 004°42'813.9
2018-Jun-13 02:56N 53°16' E 004°35'814.0
2018-Jun-13 02:24N 53°09' E 004°30'513.9
2018-Jun-13 02:00N 53°05' E 004°25'713.5
2018-Jun-13 01:30N 52°59' E 004°19'713.4
2018-Jun-13 01:00N 52°52' E 004°16'713.6
2018-Jun-13 00:30N 52°47' E 004°09'713.6
2018-Jun-13 00:01N 52°42' E 004°02'713.0
2018-Jun-12 23:30N 52°37' E 003°55'713.1
2018-Jun-12 23:00N 52°32' E 003°47'712.8
2018-Jun-12 22:30N 52°27' E 003°40'612.2
2018-Jun-12 22:00N 52°23' E 003°33'612.4
2018-Jun-12 21:30N 52°19' E 003°25'612.0
2018-Jun-12 21:00N 52°14' E 003°20'811.4
2018-Jun-12 20:19N 52°09' E 003°10'611.5
2018-Jun-12 19:46N 52°04' E 003°03'2510.5
2018-Jun-12 17:25N 51°46' E 002°36'511.0
2018-Jun-12 16:57N 51°43' E 002°30'511.3
2018-Jun-12 16:30N 51°39' E 002°25'611.6
2018-Jun-12 16:00N 51°34' E 002°20'612.1
2018-Jun-12 15:30N 51°29' E 002°14'612.2
2018-Jun-12 15:00N 51°24' E 002°08'612.3
2018-Jun-12 14:30N 51°18' E 002°07'611.5
2018-Jun-12 14:00N 51°13' E 002°02'612.6
2018-Jun-12 13:30N 51°10' E 001°53'613.0
2018-Jun-12 13:00N 51°06' E 001°45'713.7
2018-Jun-12 12:30N 51°01' E 001°37'714.1
2018-Jun-12 12:00N 50°56' E 001°29'714.8
2018-Jun-12 11:31N 50°49' E 001°25'714.4
2018-Jun-12 11:00N 50°43' E 001°21'714.2
2018-Jun-12 10:29N 50°38' E 001°12'713.9
2018-Jun-12 10:00N 50°33' E 001°04'713.4
2018-Jun-12 09:30N 50°30' E 000°55'713.6
2018-Jun-12 09:00N 50°28' E 000°45'813.9
2018-Jun-12 08:26N 50°26' E 000°33'914.4
2018-Jun-12 07:51N 50°23' E 000°20'815.0
2018-Jun-12 07:20N 50°22' E 000°08'514.9
2018-Jun-12 06:58N 50°20' E 000°00'1015.0
2018-Jun-12 06:19N 50°18' W 000°14'515.4
2018-Jun-12 06:01N 50°16' W 000°22'815.3
2018-Jun-12 05:30N 50°14' W 000°33'715.0
2018-Jun-12 05:00N 50°12' W 000°44'714.6
2018-Jun-12 04:30N 50°10' W 000°55'714.2
2018-Jun-12 04:00N 50°08' W 001°06'713.5
2018-Jun-12 03:30N 50°06' W 001°16'612.7
2018-Jun-12 03:00N 50°05' W 001°26'612.0
2018-Jun-12 02:30N 50°03' W 001°35'611.5
2018-Jun-12 02:00N 50°02' W 001°44'510.7
2018-Jun-12 01:30N 50°00' W 001°52'510.2
2018-Jun-12 01:00N 49°59' W 001°59'5 9.9
2018-Jun-12 00:30N 49°57' W 002°06'5 9.8
2018-Jun-12 00:00N 49°56' W 002°14'610.3
2018-Jun-11 23:24N 49°54' W 002°23'510.8
2018-Jun-11 22:56N 49°53' W 002°31'511.5
2018-Jun-11 22:30N 49°52' W 002°38'612.3
2018-Jun-11 22:00N 49°50' W 002°47'712.7
2018-Jun-11 21:26N 49°48' W 002°58'512.9
2018-Jun-11 21:00N 49°46' W 003°06'713.3
2018-Jun-11 20:30N 49°42' W 003°14'713.4
2018-Jun-11 20:00N 49°39' W 003°24'713.6
2018-Jun-11 19:30N 49°36' W 003°33'1113.9
2018-Jun-11 18:42N 49°30' W 003°48'314.1
2018-Jun-11 18:30N 49°29' W 003°51'5114.5
2018-Jun-11 14:58N 49°03' W 004°59'715.0
2018-Jun-11 14:30N 48°59' W 005°08'714.8
2018-Jun-11 14:00N 48°55' W 005°18'815.2
2018-Jun-11 13:28N 48°51' W 005°28'715.1
2018-Jun-11 13:00N 48°47' W 005°37'815.0
2018-Jun-11 12:28N 48°40' W 005°44'714.5
2018-Jun-11 11:58N 48°34' W 005°49'714.4
2018-Jun-11 11:30N 48°28' W 005°54'714.6
2018-Jun-11 11:00N 48°22' W 005°59'714.0
2018-Jun-11 10:29N 48°15' W 006°04'714.0
2018-Jun-11 10:00N 48°09' W 006°08'1413.8
2018-Jun-11 08:58N 47°56' W 006°17'54012.9
2018-Jun-09 15:00N 39°19' W 009°57'612.2
2018-Jun-09 14:30N 39°13' W 009°57'612.4
2018-Jun-09 14:00N 39°07' W 009°57'612.9
2018-Jun-09 13:30N 39°01' W 009°58'612.6
2018-Jun-09 13:00N 38°54' W 009°57'612.6
2018-Jun-09 12:30N 38°48' W 009°57'612.7
2018-Jun-09 12:00N 38°42' W 009°57'612.7
2018-Jun-09 11:30N 38°35' W 009°55'612.7
2018-Jun-09 11:00N 38°29' W 009°53'612.5
2018-Jun-09 10:30N 38°23' W 009°52'712.6
2018-Jun-09 09:57N 38°17' W 009°49'612.6
2018-Jun-09 09:30N 38°11' W 009°48'612.8
2018-Jun-09 09:00N 38°05' W 009°45'613.0
2018-Jun-09 08:30N 37°59' W 009°43'812.8
2018-Jun-09 07:54N 37°51' W 009°42'513.0
2018-Jun-09 07:30N 37°46' W 009°40'712.9
2018-Jun-09 07:00N 37°40' W 009°39'8211.1
2018-Jun-08 23:36N 36°36' W 008°34'1013.0
2018-Jun-08 22:48N 36°37' W 008°21'512.6
2018-Jun-08 22:24N 36°38' W 008°15'512.8
2018-Jun-08 21:59N 36°38' W 008°09'  

Dump ship's entire track history